sensor_id;sensor_type;location;lat;lon;timestamp;pressure;altitude;pressure_sealevel;temperature;humidity
37298;BME280;30517;51.932;4.278;2023-02-23T00:01:10;134297.06;;;39.35;0.00
37298;BME280;30517;51.932;4.278;2023-02-23T00:03:53;134352.13;;;39.34;0.00
37298;BME280;30517;51.932;4.278;2023-02-23T00:06:36;134358.75;;;39.34;0.00
37298;BME280;30517;51.932;4.278;2023-02-23T00:09:18;134420.44;;;39.33;0.00
37298;BME280;30517;51.932;4.278;2023-02-23T00:12:04;134378.66;;;39.34;0.00
37298;BME280;30517;51.932;4.278;2023-02-23T00:14:48;134413.78;;;39.33;0.00
37298;BME280;30517;51.932;4.278;2023-02-23T00:17:29;134671.84;;;39.28;0.00
37298;BME280;30517;51.932;4.278;2023-02-23T00:20:11;134491.66;;;39.32;0.00
37298;BME280;30517;51.932;4.278;2023-02-23T00:22:54;134525.31;;;39.31;0.00
37298;BME280;30517;51.932;4.278;2023-02-23T00:25:37;134803.59;;;39.26;0.00
37298;BME280;30517;51.932;4.278;2023-02-23T00:28:18;134853.31;;;39.25;0.00
37298;BME280;30517;51.932;4.278;2023-02-23T00:31:01;134540.03;;;39.31;0.00
37298;BME280;30517;51.932;4.278;2023-02-23T00:33:43;134587.44;;;39.30;0.00
37298;BME280;30517;51.932;4.278;2023-02-23T00:36:28;134638.63;;;39.28;0.00
37298;BME280;30517;51.932;4.278;2023-02-23T00:39:10;134743.38;;;39.26;0.00
37298;BME280;30517;51.932;4.278;2023-02-23T00:41:57;134576.56;;;39.30;0.00
37298;BME280;30517;51.932;4.278;2023-02-23T00:44:42;134888.34;;;39.24;0.00
37298;BME280;30517;51.932;4.278;2023-02-23T00:47:23;134623.50;;;39.29;0.00
37298;BME280;30517;51.932;4.278;2023-02-23T00:50:04;134685.59;;;39.28;0.00
37298;BME280;30517;51.932;4.278;2023-02-23T00:52:46;134734.88;;;39.27;0.00
37298;BME280;30517;51.932;4.278;2023-02-23T00:55:27;135709.06;;;39.07;0.00
37298;BME280;30517;51.932;4.278;2023-02-23T00:58:08;135137.75;;;39.19;0.00
37298;BME280;30517;51.932;4.278;2023-02-23T01:00:49;134811.63;;;39.25;0.00
37298;BME280;30517;51.932;4.278;2023-02-23T01:03:30;134762.88;;;39.27;0.00
37298;BME280;30517;51.932;4.278;2023-02-23T01:06:13;134839.59;;;39.25;0.00
37298;BME280;30517;51.932;4.278;2023-02-23T01:08:54;134879.88;;;39.25;0.00
37298;BME280;30517;51.932;4.278;2023-02-23T01:11:36;134852.88;;;39.25;0.00
37298;BME280;30517;51.932;4.278;2023-02-23T01:14:16;134906.44;;;39.25;0.00
37298;BME280;30517;51.932;4.278;2023-02-23T01:16:58;134948.09;;;39.24;0.00
37298;BME280;30517;51.932;4.278;2023-02-23T01:19:38;135081.09;;;39.21;0.00
37298;BME280;30517;51.932;4.278;2023-02-23T01:22:19;134934.41;;;39.24;0.00
37298;BME280;30517;51.932;4.278;2023-02-23T01:25:00;135498.53;;;39.13;0.00
37298;BME280;30517;51.932;4.278;2023-02-23T01:27:42;134981.72;;;39.23;0.00
37298;BME280;30517;51.932;4.278;2023-02-23T01:30:23;135052.72;;;39.22;0.00
37298;BME280;30517;51.932;4.278;2023-02-23T01:33:04;135018.69;;;39.22;0.00
37298;BME280;30517;51.932;4.278;2023-02-23T01:35:56;135386.19;;;39.15;0.00
37298;BME280;30517;51.932;4.278;2023-02-23T01:38:37;135114.28;;;39.21;0.00
37298;BME280;30517;51.932;4.278;2023-02-23T01:41:18;135018.69;;;39.22;0.00
37298;BME280;30517;51.932;4.278;2023-02-23T01:46:45;135107.66;;;39.21;0.00
37298;BME280;30517;51.932;4.278;2023-02-23T01:49:29;135093.97;;;39.21;0.00
37298;BME280;30517;51.932;4.278;2023-02-23T01:52:16;135142.25;;;39.20;0.00
37298;BME280;30517;51.932;4.278;2023-02-23T01:54:57;135135.59;;;39.20;0.00
37298;BME280;30517;51.932;4.278;2023-02-23T01:57:39;135316.69;;;39.17;0.00
37298;BME280;30517;51.932;4.278;2023-02-23T02:00:22;135170.19;;;39.20;0.00
37298;BME280;30517;51.932;4.278;2023-02-23T02:03:07;135531.78;;;39.13;0.00
37298;BME280;30517;51.932;4.278;2023-02-23T02:05:51;135573.66;;;39.11;0.00
37298;BME280;30517;51.932;4.278;2023-02-23T02:08:34;135176.81;;;39.20;0.00
37298;BME280;30517;51.932;4.278;2023-02-23T02:11:22;135217.47;;;39.19;0.00
37298;BME280;30517;51.932;4.278;2023-02-23T02:14:18;135433.06;;;39.15;0.00
37298;BME280;30517;51.932;4.278;2023-02-23T02:17:21;135301.66;;;39.17;0.00
37298;BME280;30517;51.932;4.278;2023-02-23T02:36:16;135432.72;;;39.15;0.00
37298;BME280;30517;51.932;4.278;2023-02-23T02:39:14;135433.06;;;39.15;0.00
37298;BME280;30517;51.932;4.278;2023-02-23T02:45:25;135336.25;;;39.17;0.00
37298;BME280;30517;51.932;4.278;2023-02-23T02:48:16;135461.94;;;39.14;0.00
37298;BME280;30517;51.932;4.278;2023-02-23T02:53:57;135439.72;;;39.15;0.00
37298;BME280;30517;51.932;4.278;2023-02-23T02:56:46;135453.00;;;39.15;0.00
37298;BME280;30517;51.932;4.278;2023-02-23T02:59:29;135572.00;;;39.12;0.00
37298;BME280;30517;51.932;4.278;2023-02-23T03:02:31;135704.56;;;39.09;0.00
37298;BME280;30517;51.932;4.278;2023-02-23T03:05:44;135398.16;;;39.16;0.00
37298;BME280;30517;51.932;4.278;2023-02-23T03:08:49;135419.41;;;39.15;0.00
37298;BME280;30517;51.932;4.278;2023-02-23T03:12:06;135732.44;;;39.09;0.00
37298;BME280;30517;51.932;4.278;2023-02-23T03:18:39;135704.22;;;39.10;0.00
37298;BME280;30517;51.932;4.278;2023-02-23T03:21:55;135578.66;;;39.12;0.00
37298;BME280;30517;51.932;4.278;2023-02-23T03:25:03;135584.94;;;39.13;0.00
37298;BME280;30517;51.932;4.278;2023-02-23T03:28:28;135550.38;;;39.13;0.00
37298;BME280;30517;51.932;4.278;2023-02-23T03:31:47;135667.41;;;39.11;0.00
37298;BME280;30517;51.932;4.278;2023-02-23T03:35:04;136989.72;;;38.84;0.00
37298;BME280;30517;51.932;4.278;2023-02-23T03:38:19;135646.78;;;39.11;0.00
37298;BME280;30517;51.932;4.278;2023-02-23T03:41:23;136098.44;;;39.02;0.00
37298;BME280;30517;51.932;4.278;2023-02-23T03:44:29;135598.59;;;39.12;0.00
37298;BME280;30517;51.932;4.278;2023-02-23T03:47:33;135620.19;;;39.11;0.00
37298;BME280;30517;51.932;4.278;2023-02-23T03:50:41;135618.88;;;39.12;0.00
37298;BME280;30517;51.932;4.278;2023-02-23T03:53:47;136042.44;;;39.03;0.00
37298;BME280;30517;51.932;4.278;2023-02-23T03:56:50;135730.81;;;39.10;0.00
37298;BME280;30517;51.932;4.278;2023-02-23T03:59:56;135730.81;;;39.10;0.00
37298;BME280;30517;51.932;4.278;2023-02-23T04:02:58;135717.19;;;39.10;0.00
37298;BME280;30517;51.932;4.278;2023-02-23T04:06:00;135744.13;;;39.10;0.00
37298;BME280;30517;51.932;4.278;2023-02-23T04:09:02;135744.13;;;39.10;0.00
37298;BME280;30517;51.932;4.278;2023-02-23T04:15:40;136000.69;;;39.05;0.00
37298;BME280;30517;51.932;4.278;2023-02-23T04:18:26;135875.28;;;39.07;0.00
37298;BME280;30517;51.932;4.278;2023-02-23T04:21:07;135861.69;;;39.08;0.00
37298;BME280;30517;51.932;4.278;2023-02-23T04:23:48;135805.56;;;39.09;0.00
37298;BME280;30517;51.932;4.278;2023-02-23T04:26:28;135555.72;;;39.14;0.00
37298;BME280;30517;51.932;4.278;2023-02-23T04:29:11;135757.06;;;39.10;0.00
37298;BME280;30517;51.932;4.278;2023-02-23T04:31:52;135901.88;;;39.07;0.00
37298;BME280;30517;51.932;4.278;2023-02-23T04:34:33;135804.28;;;39.09;0.00
37298;BME280;30517;51.932;4.278;2023-02-23T04:37:13;135784.00;;;39.10;0.00
37298;BME280;30517;51.932;4.278;2023-02-23T04:39:54;135865.41;;;39.09;0.00
37298;BME280;30517;51.932;4.278;2023-02-23T04:42:37;135845.78;;;39.09;0.00
37298;BME280;30517;51.932;4.278;2023-02-23T04:45:18;135845.47;;;39.09;0.00
37298;BME280;30517;51.932;4.278;2023-02-23T04:47:59;135948.44;;;39.07;0.00
37298;BME280;30517;51.932;4.278;2023-02-23T04:50:40;136273.19;;;39.01;0.00
37298;BME280;30517;51.932;4.278;2023-02-23T04:53:21;135941.47;;;39.08;0.00
37298;BME280;30517;51.932;4.278;2023-02-23T04:56:02;135899.00;;;39.09;0.00
37298;BME280;30517;51.932;4.278;2023-02-23T04:58:43;140844.38;;;38.07;0.00
37298;BME280;30517;51.932;4.278;2023-02-23T05:01:23;135952.50;;;39.08;0.00
37298;BME280;30517;51.932;4.278;2023-02-23T05:04:04;135925.91;;;39.08;0.00
37298;BME280;30517;51.932;4.278;2023-02-23T05:06:45;137115.09;;;38.85;0.00
37298;BME280;30517;51.932;4.278;2023-02-23T05:09:27;136272.66;;;39.02;0.00
37298;BME280;30517;51.932;4.278;2023-02-23T05:12:08;136144.47;;;39.06;0.00
37298;BME280;30517;51.932;4.278;2023-02-23T05:14:48;137317.81;;;38.82;0.00
37298;BME280;30517;51.932;4.278;2023-02-23T05:17:30;136082.06;;;39.06;0.00
37298;BME280;30517;51.932;4.278;2023-02-23T05:20:12;136061.47;;;39.07;0.00
37298;BME280;30517;51.932;4.278;2023-02-23T05:22:54;136151.13;;;39.06;0.00
37298;BME280;30517;51.932;4.278;2023-02-23T05:25:37;136158.09;;;39.05;0.00
37298;BME280;30517;51.932;4.278;2023-02-23T05:28:18;136240.75;;;39.04;0.00
37298;BME280;30517;51.932;4.278;2023-02-23T05:30:59;136240.75;;;39.04;0.00
37298;BME280;30517;51.932;4.278;2023-02-23T05:33:40;136302.44;;;39.03;0.00
37298;BME280;30517;51.932;4.278;2023-02-23T05:36:24;135535.59;;;39.17;0.00
37298;BME280;30517;51.932;4.278;2023-02-23T05:39:05;135430.09;;;39.19;0.00
37298;BME280;30517;51.932;4.278;2023-02-23T05:41:46;135430.09;;;39.19;0.00
37298;BME280;30517;51.932;4.278;2023-02-23T05:44:28;141735.09;;;37.90;0.00
37298;BME280;30517;51.932;4.278;2023-02-23T05:47:09;135811.66;;;39.12;0.00
37298;BME280;30517;51.932;4.278;2023-02-23T05:49:50;135576.25;;;39.16;0.00
37298;BME280;30517;51.932;4.278;2023-02-23T05:52:31;135728.56;;;39.14;0.00
37298;BME280;30517;51.932;4.278;2023-02-23T05:55:12;135791.38;;;39.12;0.00
37298;BME280;30517;51.932;4.278;2023-02-23T05:57:53;135873.50;;;39.11;0.00
37298;BME280;30517;51.932;4.278;2023-02-23T06:00:34;135903.69;;;39.10;0.00
37298;BME280;30517;51.932;4.278;2023-02-23T06:03:15;136319.22;;;39.02;0.00
37298;BME280;30517;51.932;4.278;2023-02-23T06:05:57;135958.50;;;39.09;0.00
37298;BME280;30517;51.932;4.278;2023-02-23T06:08:38;136005.72;;;39.08;0.00
37298;BME280;30517;51.932;4.278;2023-02-23T06:11:19;136041.22;;;39.08;0.00
37298;BME280;30517;51.932;4.278;2023-02-23T06:14:00;136101.69;;;39.07;0.00
37298;BME280;30517;51.932;4.278;2023-02-23T06:16:41;136164.44;;;39.06;0.00
37298;BME280;30517;51.932;4.278;2023-02-23T06:19:24;136226.81;;;39.05;0.00
37298;BME280;30517;51.932;4.278;2023-02-23T06:22:04;136273.41;;;39.05;0.00
37298;BME280;30517;51.932;4.278;2023-02-23T06:24:45;136260.09;;;39.05;0.00
37298;BME280;30517;51.932;4.278;2023-02-23T06:27:26;136280.34;;;39.04;0.00
37298;BME280;30517;51.932;4.278;2023-02-23T06:30:07;136388.94;;;39.03;0.00
37298;BME280;30517;51.932;4.278;2023-02-23T06:32:48;136419.00;;;39.02;0.00
37298;BME280;30517;51.932;4.278;2023-02-23T06:35:29;137232.72;;;38.85;0.00
37298;BME280;30517;51.932;4.278;2023-02-23T06:38:11;136465.88;;;39.01;0.00
37298;BME280;30517;51.932;4.278;2023-02-23T06:40:52;136563.28;;;38.99;0.00
37298;BME280;30517;51.932;4.278;2023-02-23T06:43:33;136540.84;;;39.00;0.00
37298;BME280;30517;51.932;4.278;2023-02-23T06:46:14;137774.97;;;38.75;0.00
37298;BME280;30517;51.932;4.278;2023-02-23T06:48:55;136507.31;;;39.01;0.00
37298;BME280;30517;51.932;4.278;2023-02-23T06:51:38;136603.47;;;38.99;0.00
37298;BME280;30517;51.932;4.278;2023-02-23T06:54:19;140167.41;;;38.27;0.00
37298;BME280;30517;51.932;4.278;2023-02-23T06:57:00;136616.53;;;38.99;0.00
37298;BME280;30517;51.932;4.278;2023-02-23T06:59:41;136630.09;;;38.99;0.00
37298;BME280;30517;51.932;4.278;2023-02-23T07:02:21;136732.63;;;38.98;0.00
37298;BME280;30517;51.932;4.278;2023-02-23T07:05:03;136802.13;;;38.96;0.00
37298;BME280;30517;51.932;4.278;2023-02-23T07:07:44;136792.78;;;38.97;0.00
37298;BME280;30517;51.932;4.278;2023-02-23T07:10:25;136772.56;;;38.98;0.00
37298;BME280;30517;51.932;4.278;2023-02-23T07:13:06;136832.72;;;38.97;0.00
37298;BME280;30517;51.932;4.278;2023-02-23T07:15:47;136943.34;;;38.95;0.00
37298;BME280;30517;51.932;4.278;2023-02-23T07:18:28;136963.34;;;38.95;0.00
37298;BME280;30517;51.932;4.278;2023-02-23T07:21:09;137023.72;;;38.94;0.00
37298;BME280;30517;51.932;4.278;2023-02-23T07:23:50;137016.84;;;38.95;0.00
37298;BME280;30517;51.932;4.278;2023-02-23T07:26:31;137231.28;;;38.90;0.00
37298;BME280;30517;51.932;4.278;2023-02-23T07:29:12;137043.22;;;38.95;0.00
37298;BME280;30517;51.932;4.278;2023-02-23T07:31:53;137147.16;;;38.93;0.00
37298;BME280;30517;51.932;4.278;2023-02-23T07:34:34;137464.16;;;38.87;0.00
37298;BME280;30517;51.932;4.278;2023-02-23T07:37:16;137372.72;;;38.89;0.00
37298;BME280;30517;51.932;4.278;2023-02-23T07:39:57;137221.81;;;38.92;0.00
37298;BME280;30517;51.932;4.278;2023-02-23T07:42:38;137284.34;;;38.91;0.00
37298;BME280;30517;51.932;4.278;2023-02-23T07:45:19;137291.00;;;38.91;0.00
37298;BME280;30517;51.932;4.278;2023-02-23T07:47:59;137344.69;;;38.90;0.00
37298;BME280;30517;51.932;4.278;2023-02-23T07:50:41;137385.81;;;38.90;0.00
37298;BME280;30517;51.932;4.278;2023-02-23T07:53:22;137412.69;;;38.89;0.00
37298;BME280;30517;51.932;4.278;2023-02-23T07:56:04;137544.06;;;38.87;0.00
37298;BME280;30517;51.932;4.278;2023-02-23T07:58:45;138039.19;;;38.77;0.00
37298;BME280;30517;51.932;4.278;2023-02-23T08:01:26;137665.88;;;38.85;0.00
37298;BME280;30517;51.932;4.278;2023-02-23T08:04:07;137542.91;;;38.87;0.00
37298;BME280;30517;51.932;4.278;2023-02-23T08:06:48;137536.25;;;38.87;0.00
37298;BME280;30517;51.932;4.278;2023-02-23T08:09:29;137762.72;;;38.83;0.00
37298;BME280;30517;51.932;4.278;2023-02-23T08:12:11;137541.75;;;38.88;0.00
37298;BME280;30517;51.932;4.278;2023-02-23T08:14:54;137604.22;;;38.87;0.00
37298;BME280;30517;51.932;4.278;2023-02-23T08:17:36;137556.22;;;38.87;0.00
37298;BME280;30517;51.932;4.278;2023-02-23T08:20:17;137962.19;;;38.79;0.00
37298;BME280;30517;51.932;4.278;2023-02-23T08:22:58;137541.75;;;38.88;0.00
37298;BME280;30517;51.932;4.278;2023-02-23T08:25:39;137742.41;;;38.84;0.00
37298;BME280;30517;51.932;4.278;2023-02-23T08:28:20;137459.09;;;38.90;0.00
37298;BME280;30517;51.932;4.278;2023-02-23T08:31:01;137464.59;;;38.90;0.00
37298;BME280;30517;51.932;4.278;2023-02-23T08:33:42;137604.22;;;38.87;0.00
37298;BME280;30517;51.932;4.278;2023-02-23T08:36:23;137775.88;;;38.84;0.00
37298;BME280;30517;51.932;4.278;2023-02-23T08:39:04;137402.06;;;38.91;0.00
37298;BME280;30517;51.932;4.278;2023-02-23T08:41:46;137430.84;;;38.91;0.00
37298;BME280;30517;51.932;4.278;2023-02-23T08:44:27;137505.72;;;38.90;0.00
37298;BME280;30517;51.932;4.278;2023-02-23T08:47:08;137422.03;;;38.91;0.00
37298;BME280;30517;51.932;4.278;2023-02-23T08:49:49;137442.03;;;38.91;0.00
37298;BME280;30517;51.932;4.278;2023-02-23T08:52:30;137388.28;;;38.92;0.00
37298;BME280;30517;51.932;4.278;2023-02-23T08:55:12;137394.72;;;38.92;0.00
37298;BME280;30517;51.932;4.278;2023-02-23T08:57:55;138461.69;;;38.71;0.00
37298;BME280;30517;51.932;4.278;2023-02-23T09:00:37;137393.53;;;38.93;0.00
37298;BME280;30517;51.932;4.278;2023-02-23T09:03:19;137711.00;;;38.86;0.00
37298;BME280;30517;51.932;4.278;2023-02-23T09:06:16;137358.81;;;38.94;0.00
37298;BME280;30517;51.932;4.278;2023-02-23T09:08:57;137373.31;;;38.93;0.00
37298;BME280;30517;51.932;4.278;2023-02-23T09:11:38;137303.13;;;38.95;0.00
37298;BME280;30517;51.932;4.278;2023-02-23T09:14:18;137282.91;;;38.95;0.00
37298;BME280;30517;51.932;4.278;2023-02-23T09:17:00;137158.91;;;38.97;0.00
37298;BME280;30517;51.932;4.278;2023-02-23T09:19:41;137254.81;;;38.96;0.00
37298;BME280;30517;51.932;4.278;2023-02-23T09:22:21;137234.59;;;38.96;0.00
37298;BME280;30517;51.932;4.278;2023-02-23T09:25:02;137302.88;;;38.95;0.00
37298;BME280;30517;51.932;4.278;2023-02-23T09:27:44;137599.16;;;38.89;0.00
37298;BME280;30517;51.932;4.278;2023-02-23T09:30:26;137185.28;;;38.98;0.00
37298;BME280;30517;51.932;4.278;2023-02-23T09:33:07;137612.50;;;38.89;0.00
37298;BME280;30517;51.932;4.278;2023-02-23T09:35:48;137170.72;;;38.98;0.00
37298;BME280;30517;51.932;4.278;2023-02-23T09:38:29;142491.91;;;37.88;0.00
37298;BME280;30517;51.932;4.278;2023-02-23T09:45:02;137218.81;;;38.97;0.00
37298;BME280;30517;51.932;4.278;2023-02-23T09:48:00;137378.78;;;38.94;0.00
37298;BME280;30517;51.932;4.278;2023-02-23T09:50:48;136998.25;;;39.01;0.00
37298;BME280;30517;51.932;4.278;2023-02-23T09:57:16;136880.72;;;39.03;0.00
37298;BME280;30517;51.932;4.278;2023-02-23T09:59:24;136832.56;;;39.04;0.00
37298;BME280;30517;51.932;4.278;2023-02-23T10:05:07;136789.78;;;39.06;0.00
37298;BME280;30517;51.932;4.278;2023-02-23T10:07:59;136673.44;;;39.07;0.00
37298;BME280;30517;51.932;4.278;2023-02-23T10:10:48;136720.69;;;39.06;0.00
37298;BME280;30517;51.932;4.278;2023-02-23T10:20:21;136603.66;;;39.09;0.00
37298;BME280;30517;51.932;4.278;2023-02-23T10:23:11;136991.88;;;39.01;0.00
37298;BME280;30517;51.932;4.278;2023-02-23T10:25:56;136409.44;;;39.13;0.00
37298;BME280;30517;51.932;4.278;2023-02-23T10:28:38;136742.88;;;39.06;0.00
37298;BME280;30517;51.932;4.278;2023-02-23T10:34:12;136380.16;;;39.14;0.00
37298;BME280;30517;51.932;4.278;2023-02-23T10:37:02;136242.38;;;39.16;0.00
37298;BME280;30517;51.932;4.278;2023-02-23T10:39:44;136193.72;;;39.17;0.00
37298;BME280;30517;51.932;4.278;2023-02-23T10:42:26;136011.44;;;39.21;0.00
37298;BME280;30517;51.932;4.278;2023-02-23T10:45:19;136038.03;;;39.21;0.00
37298;BME280;30517;51.932;4.278;2023-02-23T10:48:06;136269.00;;;39.16;0.00
37298;BME280;30517;51.932;4.278;2023-02-23T10:50:49;136666.47;;;39.08;0.00
37298;BME280;30517;51.932;4.278;2023-02-23T10:53:32;135699.50;;;39.27;0.00
37298;BME280;30517;51.932;4.278;2023-02-23T10:56:18;135587.00;;;39.29;0.00
37298;BME280;30517;51.932;4.278;2023-02-23T10:59:00;135490.16;;;39.30;0.00
37298;BME280;30517;51.932;4.278;2023-02-23T11:01:42;135377.56;;;39.33;0.00
37298;BME280;30517;51.932;4.278;2023-02-23T11:04:28;135547.16;;;39.29;0.00
37298;BME280;30517;51.932;4.278;2023-02-23T11:09:53;135290.25;;;39.33;0.00
37298;BME280;30517;51.932;4.278;2023-02-23T11:12:39;134969.78;;;39.39;0.00
37298;BME280;30517;51.932;4.278;2023-02-23T11:18:05;135204.59;;;39.36;0.00
37298;BME280;30517;51.932;4.278;2023-02-23T11:20:46;135133.72;;;39.37;0.00
37298;BME280;30517;51.932;4.278;2023-02-23T11:23:35;135183.19;;;39.36;0.00
37298;BME280;30517;51.932;4.278;2023-02-23T11:26:37;135000.97;;;39.40;0.00
37298;BME280;30517;51.932;4.278;2023-02-23T11:29:27;135091.34;;;39.38;0.00
37298;BME280;30517;51.932;4.278;2023-02-23T11:32:13;134818.09;;;39.44;0.00
37298;BME280;30517;51.932;4.278;2023-02-23T11:37:58;134666.31;;;39.46;0.00
37298;BME280;30517;51.932;4.278;2023-02-23T11:41:02;135018.84;;;39.38;0.00
37298;BME280;30517;51.932;4.278;2023-02-23T11:43:47;134480.16;;;39.49;0.00
37298;BME280;30517;51.932;4.278;2023-02-23T11:46:33;134444.41;;;39.49;0.00
37298;BME280;30517;51.932;4.278;2023-02-23T11:49:32;134436.22;;;39.49;0.00
37298;BME280;30517;51.932;4.278;2023-02-23T11:52:21;134436.22;;;39.49;0.00
37298;BME280;30517;51.932;4.278;2023-02-23T11:55:07;134263.19;;;39.52;0.00
37298;BME280;30517;51.932;4.278;2023-02-23T12:01:00;134282.47;;;39.53;0.00
37298;BME280;30517;51.932;4.278;2023-02-23T12:03:48;134072.56;;;39.56;0.00
37298;BME280;30517;51.932;4.278;2023-02-23T12:06:39;134045.41;;;39.57;0.00
37298;BME280;30517;51.932;4.278;2023-02-23T12:09:29;133967.56;;;39.58;0.00
37298;BME280;30517;51.932;4.278;2023-02-23T12:12:14;133897.34;;;39.59;0.00
37298;BME280;30517;51.932;4.278;2023-02-23T12:15:18;133799.22;;;39.61;0.00
37298;BME280;30517;51.932;4.278;2023-02-23T12:18:07;133821.44;;;39.60;0.00
37298;BME280;30517;51.932;4.278;2023-02-23T12:20:55;133652.00;;;39.64;0.00
37298;BME280;30517;51.932;4.278;2023-02-23T12:23:38;133616.50;;;39.65;0.00
37298;BME280;30517;51.932;4.278;2023-02-23T12:26:21;133594.94;;;39.65;0.00
37298;BME280;30517;51.932;4.278;2023-02-23T12:39:05;133454.25;;;39.68;0.00
37298;BME280;30517;51.932;4.278;2023-02-23T12:45:02;133413.78;;;39.68;0.00
37298;BME280;30517;51.932;4.278;2023-02-23T12:50:37;133235.69;;;39.72;0.00
37298;BME280;30517;51.932;4.278;2023-02-23T12:53:36;133144.59;;;39.73;0.00
37298;BME280;30517;51.932;4.278;2023-02-23T12:56:59;133185.09;;;39.73;0.00
37298;BME280;30517;51.932;4.278;2023-02-23T12:59:54;133087.16;;;39.74;0.00
37298;BME280;30517;51.932;4.278;2023-02-23T13:02:48;132947.16;;;39.77;0.00
37298;BME280;30517;51.932;4.278;2023-02-23T13:05:31;133216.53;;;39.71;0.00
37298;BME280;30517;51.932;4.278;2023-02-23T13:08:22;132889.88;;;39.78;0.00
37298;BME280;30517;51.932;4.278;2023-02-23T13:14:44;132791.88;;;39.79;0.00
37298;BME280;30517;51.932;4.278;2023-02-23T13:17:57;132785.25;;;39.79;0.00
37298;BME280;30517;51.932;4.278;2023-02-23T13:21:01;132835.13;;;39.79;0.00
37298;BME280;30517;51.932;4.278;2023-02-23T13:24:00;132666.72;;;39.82;0.00
37298;BME280;30517;51.932;4.278;2023-02-23T13:26:48;132597.94;;;39.82;0.00
37298;BME280;30517;51.932;4.278;2023-02-23T13:29:37;132611.19;;;39.82;0.00
37298;BME280;30517;51.932;4.278;2023-02-23T13:32:24;132869.44;;;39.76;0.00
37298;BME280;30517;51.932;4.278;2023-02-23T13:35:18;132492.44;;;39.84;0.00
37298;BME280;30517;51.932;4.278;2023-02-23T13:38:10;133065.88;;;39.73;0.00
37298;BME280;30517;51.932;4.278;2023-02-23T13:41:14;133086.47;;;39.73;0.00
37298;BME280;30517;51.932;4.278;2023-02-23T13:44:39;132376.66;;;39.87;0.00
37298;BME280;30517;51.932;4.278;2023-02-23T13:50:18;132207.97;;;39.90;0.00
37298;BME280;30517;51.932;4.278;2023-02-23T13:53:05;132200.50;;;39.90;0.00
37298;BME280;30517;51.932;4.278;2023-02-23T13:55:47;132114.69;;;39.92;0.00
37298;BME280;30517;51.932;4.278;2023-02-23T13:58:31;131889.19;;;39.95;0.00
37298;BME280;30517;51.932;4.278;2023-02-23T14:01:19;131941.09;;;39.94;0.00
37298;BME280;30517;51.932;4.278;2023-02-23T14:04:06;132009.00;;;39.93;0.00
37298;BME280;30517;51.932;4.278;2023-02-23T14:09:57;131981.66;;;39.94;0.00
37298;BME280;30517;51.932;4.278;2023-02-23T14:12:40;131954.34;;;39.94;0.00
37298;BME280;30517;51.932;4.278;2023-02-23T14:35:00;131617.16;;;40.01;0.00
37298;BME280;30517;51.932;4.278;2023-02-23T14:37:41;131854.22;;;39.96;0.00
37298;BME280;30517;51.932;4.278;2023-02-23T14:40:29;131428.16;;;40.04;0.00
37298;BME280;30517;51.932;4.278;2023-02-23T14:43:46;131341.09;;;40.06;0.00
37298;BME280;30517;51.932;4.278;2023-02-23T14:46:30;138336.06;;;38.64;0.00
37298;BME280;30517;51.932;4.278;2023-02-23T14:49:24;131151.91;;;40.09;0.00
37298;BME280;30517;51.932;4.278;2023-02-23T14:52:08;131151.91;;;40.09;0.00
37298;BME280;30517;51.932;4.278;2023-02-23T14:55:06;131044.91;;;40.11;0.00
37298;BME280;30517;51.932;4.278;2023-02-23T14:57:47;131065.72;;;40.10;0.00
37298;BME280;30517;51.932;4.278;2023-02-23T15:00:32;131123.50;;;40.09;0.00
37298;BME280;30517;51.932;4.278;2023-02-23T15:03:13;131041.94;;;40.12;0.00
37298;BME280;30517;51.932;4.278;2023-02-23T15:05:58;131075.97;;;40.11;0.00
37298;BME280;30517;51.932;4.278;2023-02-23T15:08:43;130969.91;;;40.13;0.00
37298;BME280;30517;51.932;4.278;2023-02-23T15:11:24;130931.88;;;40.14;0.00
37298;BME280;30517;51.932;4.278;2023-02-23T15:14:05;130818.13;;;40.16;0.00
37298;BME280;30517;51.932;4.278;2023-02-23T15:16:47;131135.75;;;40.09;0.00
37298;BME280;30517;51.932;4.278;2023-02-23T15:19:32;131084.56;;;40.11;0.00
37298;BME280;30517;51.932;4.278;2023-02-23T15:22:23;130744.97;;;40.18;0.00
37298;BME280;30517;51.932;4.278;2023-02-23T15:25:20;130675.84;;;40.19;0.00
37298;BME280;30517;51.932;4.278;2023-02-23T15:28:26;130694.63;;;40.19;0.00
37298;BME280;30517;51.932;4.278;2023-02-23T15:31:11;130631.09;;;40.20;0.00
37298;BME280;30517;51.932;4.278;2023-02-23T15:33:52;130552.34;;;40.21;0.00
37298;BME280;30517;51.932;4.278;2023-02-23T15:36:35;130615.88;;;40.20;0.00
37298;BME280;30517;51.932;4.278;2023-02-23T15:39:29;130637.72;;;40.20;0.00
37298;BME280;30517;51.932;4.278;2023-02-23T15:42:18;130650.91;;;40.20;0.00
37298;BME280;30517;51.932;4.278;2023-02-23T15:45:04;130611.75;;;40.21;0.00
37298;BME280;30517;51.932;4.278;2023-02-23T15:47:54;130664.13;;;40.20;0.00
37298;BME280;30517;51.932;4.278;2023-02-23T15:50:41;130598.56;;;40.21;0.00
37298;BME280;30517;51.932;4.278;2023-02-23T15:53:36;130758.19;;;40.18;0.00
37298;BME280;30517;51.932;4.278;2023-02-23T15:56:28;131843.94;;;39.99;0.00
37298;BME280;30517;51.932;4.278;2023-02-23T15:59:13;131701.22;;;40.01;0.00
37298;BME280;30517;51.932;4.278;2023-02-23T16:01:57;131601.00;;;40.04;0.00
37298;BME280;30517;51.932;4.278;2023-02-23T16:04:39;131476.22;;;40.05;0.00
37298;BME280;30517;51.932;4.278;2023-02-23T16:07:25;131376.84;;;40.07;0.00
37298;BME280;30517;51.932;4.278;2023-02-23T16:10:22;131799.56;;;39.98;0.00
37298;BME280;30517;51.932;4.278;2023-02-23T16:13:04;131033.97;;;40.13;0.00
37298;BME280;30517;51.932;4.278;2023-02-23T16:15:45;130984.72;;;40.14;0.00
37298;BME280;30517;51.932;4.278;2023-02-23T16:18:37;130977.09;;;40.15;0.00
37298;BME280;30517;51.932;4.278;2023-02-23T16:21:21;130819.63;;;40.17;0.00
37298;BME280;30517;51.932;4.278;2023-02-23T16:24:09;130791.19;;;40.18;0.00
37298;BME280;30517;51.932;4.278;2023-02-23T16:26:57;130977.09;;;40.15;0.00
37298;BME280;30517;51.932;4.278;2023-02-23T16:29:40;130853.69;;;40.17;0.00